createdAt,value
2023-03-03T00:01:07.852Z,-0.54
2023-03-03T00:03:24.805Z,-0.55
2023-03-03T00:05:42.894Z,-0.58
2023-03-03T00:08:00.987Z,-0.63
2023-03-03T00:10:18.208Z,-0.67
2023-03-03T00:12:36.237Z,-0.75
2023-03-03T00:14:53.199Z,-0.78
2023-03-03T00:17:10.224Z,-0.80
2023-03-03T00:19:27.142Z,-0.82
2023-03-03T00:21:44.155Z,-0.85
2023-03-03T00:24:01.538Z,-0.86
2023-03-03T00:26:18.483Z,-0.89
2023-03-03T00:28:35.554Z,-0.90
2023-03-03T00:30:52.497Z,-0.90
2023-03-03T00:33:09.920Z,-0.89
2023-03-03T00:35:26.820Z,-0.90
2023-03-03T00:37:44.178Z,-0.92
2023-03-03T00:40:01.085Z,-0.95
2023-03-03T00:42:18.188Z,-0.99
2023-03-03T00:44:35.138Z,-1.03
2023-03-03T00:46:52.166Z,-1.03
2023-03-03T00:49:09.249Z,-1.05
2023-03-03T00:51:26.226Z,-1.05
2023-03-03T00:53:43.265Z,-1.06
2023-03-03T00:56:01.234Z,-1.08
2023-03-03T00:58:18.212Z,-1.07
2023-03-03T01:00:35.521Z,-1.06
2023-03-03T01:02:52.703Z,-1.09
2023-03-03T01:05:10.570Z,-1.11
2023-03-03T01:07:27.865Z,-1.12
2023-03-03T01:09:46.211Z,-1.17
2023-03-03T01:12:03.082Z,-1.19
2023-03-03T01:14:20.052Z,-1.21
2023-03-03T01:16:36.999Z,-1.23
2023-03-03T01:18:53.958Z,-1.25
2023-03-03T01:21:11.222Z,-1.28
2023-03-03T01:23:28.319Z,-1.30
2023-03-03T01:25:45.617Z,-1.32
2023-03-03T01:28:02.704Z,-1.33
2023-03-03T01:30:19.713Z,-1.36
2023-03-03T01:32:36.737Z,-1.37
2023-03-03T01:34:54.589Z,-1.40
2023-03-03T01:37:11.893Z,-1.38
2023-03-03T01:39:28.865Z,-1.41
2023-03-03T01:41:45.939Z,-1.43
2023-03-03T01:44:02.998Z,-1.45
2023-03-03T01:46:20.212Z,-1.46
2023-03-03T01:48:37.511Z,-1.47
2023-03-03T01:50:54.365Z,-1.46
2023-03-03T01:53:11.667Z,-1.46
2023-03-03T01:55:28.629Z,-1.47
2023-03-03T01:57:45.556Z,-1.49
2023-03-03T02:00:02.544Z,-1.47
2023-03-03T02:02:20.093Z,-1.46
2023-03-03T02:04:37.405Z,-1.49
2023-03-03T02:06:54.700Z,-1.54
2023-03-03T02:09:11.743Z,-1.58
2023-03-03T02:11:29.747Z,-1.62
2023-03-03T02:13:47.123Z,-1.63
2023-03-03T02:16:04.396Z,-1.65
2023-03-03T02:18:22.630Z,-1.67
2023-03-03T02:20:39.534Z,-1.69
2023-03-03T02:22:56.429Z,-1.71
2023-03-03T02:25:13.715Z,-1.72
2023-03-03T02:27:30.810Z,-1.69
2023-03-03T02:29:49.985Z,-1.70
2023-03-03T02:32:07.388Z,-1.70
2023-03-03T02:34:24.658Z,-1.72
2023-03-03T02:36:41.673Z,-1.72
2023-03-03T02:38:59.030Z,-1.72
2023-03-03T02:41:16.313Z,-1.71
2023-03-03T02:43:33.347Z,-1.74
2023-03-03T02:45:50.342Z,-1.77
2023-03-03T02:48:07.687Z,-1.81
2023-03-03T02:50:24.989Z,-1.79
2023-03-03T02:52:41.872Z,-1.81
2023-03-03T02:54:59.693Z,-1.81
2023-03-03T02:57:17.794Z,-1.81
2023-03-03T02:59:34.741Z,-1.83
2023-03-03T03:01:51.786Z,-1.86
2023-03-03T03:04:09.491Z,-1.91
2023-03-03T03:06:26.726Z,-1.93
2023-03-03T03:08:43.992Z,-1.97
2023-03-03T03:11:01.868Z,-1.99
2023-03-03T03:13:18.825Z,-2.01
2023-03-03T03:15:35.833Z,-1.99
2023-03-03T03:17:53.129Z,-2.01
2023-03-03T03:20:10.639Z,-2.01
2023-03-03T03:22:27.652Z,-2.04
2023-03-03T03:24:44.611Z,-2.07
2023-03-03T03:27:01.957Z,-2.09
2023-03-03T03:29:19.221Z,-2.09
2023-03-03T03:31:37.234Z,-2.11
2023-03-03T03:33:55.281Z,-2.16
2023-03-03T03:36:12.348Z,-2.18
2023-03-03T03:38:29.303Z,-2.21
2023-03-03T03:40:46.219Z,-2.21
2023-03-03T03:43:03.545Z,-2.23
2023-03-03T03:45:20.512Z,-2.22
2023-03-03T03:47:37.796Z,-2.23
2023-03-03T03:49:54.739Z,-2.22
2023-03-03T03:52:12.106Z,-2.22
2023-03-03T03:54:29.250Z,-2.23
2023-03-03T03:56:46.254Z,-2.19
2023-03-03T03:59:03.543Z,-2.17
2023-03-03T04:01:20.834Z,-2.17
2023-03-03T04:03:38.156Z,-2.18
2023-03-03T04:05:55.484Z,-2.22
2023-03-03T04:08:12.609Z,-2.23
2023-03-03T04:10:29.608Z,-2.26
2023-03-03T04:12:46.731Z,-2.32
2023-03-03T04:15:03.669Z,-2.33
2023-03-03T04:17:21.997Z,-2.38
2023-03-03T04:19:39.349Z,-2.39
2023-03-03T04:21:56.318Z,-2.39
2023-03-03T04:24:13.309Z,-2.40
2023-03-03T04:26:31.196Z,-2.42
2023-03-03T04:28:48.117Z,-2.43
2023-03-03T04:31:05.262Z,-2.44
2023-03-03T04:33:22.240Z,-2.44
2023-03-03T04:35:39.579Z,-2.47
2023-03-03T04:37:56.683Z,-2.48
2023-03-03T04:40:14.674Z,-2.49
2023-03-03T04:42:31.692Z,-2.49
2023-03-03T04:44:48.602Z,-2.51
2023-03-03T04:47:05.944Z,-2.53
2023-03-03T04:49:22.928Z,-2.53
2023-03-03T04:51:40.257Z,-2.58
2023-03-03T04:53:57.340Z,-2.57
2023-03-03T04:56:14.437Z,-2.59
2023-03-03T04:58:31.777Z,-2.61
2023-03-03T05:00:48.736Z,-2.61
2023-03-03T05:03:06.053Z,-2.62
2023-03-03T05:05:22.953Z,-2.67
2023-03-03T05:07:39.943Z,-2.66
2023-03-03T05:09:56.960Z,-2.65
2023-03-03T05:12:14.301Z,-2.66
2023-03-03T05:14:31.404Z,-2.72
2023-03-03T05:16:48.345Z,-2.71
2023-03-03T05:19:05.616Z,-2.72
2023-03-03T05:21:22.511Z,-2.70
2023-03-03T05:23:39.604Z,-2.73
2023-03-03T05:25:56.636Z,-2.73
2023-03-03T05:28:14.497Z,-2.72
2023-03-03T05:30:31.574Z,-2.72
2023-03-03T05:32:48.472Z,-2.73
2023-03-03T05:35:05.794Z,-2.74
2023-03-03T05:37:22.746Z,-2.75
2023-03-03T05:39:40.069Z,-2.76
2023-03-03T05:41:57.317Z,-2.80
2023-03-03T05:44:14.428Z,-2.81
2023-03-03T05:46:31.642Z,-2.82
2023-03-03T05:48:48.669Z,-2.83
2023-03-03T05:51:05.782Z,-2.85
2023-03-03T05:53:22.767Z,-2.86
2023-03-03T05:55:40.063Z,-2.86
2023-03-03T05:57:57.348Z,-2.86
2023-03-03T06:00:14.424Z,-2.89
2023-03-03T06:02:31.406Z,-2.91
2023-03-03T06:04:48.336Z,-2.90
2023-03-03T06:07:05.645Z,-2.90
2023-03-03T06:09:23.011Z,-2.90
2023-03-03T06:11:40.202Z,-2.93
2023-03-03T06:13:57.300Z,-2.90
2023-03-03T06:16:14.625Z,-2.92
2023-03-03T06:18:31.746Z,-2.92
2023-03-03T06:20:48.724Z,-2.87
2023-03-03T06:23:07.014Z,-2.84
2023-03-03T06:25:24.294Z,-2.84
2023-03-03T06:27:41.339Z,-2.84
2023-03-03T06:29:58.386Z,-2.80
2023-03-03T06:32:16.641Z,-2.80
2023-03-03T06:34:33.973Z,-2.82
2023-03-03T06:36:51.296Z,-2.83
2023-03-03T06:39:08.420Z,-2.81
2023-03-03T06:41:25.679Z,-2.71
2023-03-03T06:43:42.797Z,-2.68
2023-03-03T06:46:00.163Z,-2.63
2023-03-03T06:48:18.434Z,-2.62
2023-03-03T06:50:35.355Z,-2.62
2023-03-03T06:52:53.265Z,-2.58
2023-03-03T06:55:10.328Z,-2.54
2023-03-03T06:57:27.320Z,-2.51
2023-03-03T06:59:44.536Z,-2.49
2023-03-03T07:02:01.838Z,-2.49
2023-03-03T07:04:18.804Z,-2.47
2023-03-03T07:06:35.905Z,-2.47
2023-03-03T07:08:52.997Z,-2.43
2023-03-03T07:11:12.805Z,-2.43
2023-03-03T07:13:29.825Z,-2.42
2023-03-03T07:15:46.952Z,-2.38
2023-03-03T07:18:03.929Z,-2.30
2023-03-03T07:20:20.853Z,-2.24
2023-03-03T07:22:38.188Z,-2.19
2023-03-03T07:24:55.148Z,-2.15
2023-03-03T07:27:12.052Z,-2.12
2023-03-03T07:29:29.185Z,-2.07
2023-03-03T07:31:46.372Z,-2.00
2023-03-03T07:34:03.417Z,-1.98
2023-03-03T07:36:21.331Z,-1.94
2023-03-03T07:38:40.596Z,-1.89
2023-03-03T07:40:57.604Z,-1.80
2023-03-03T07:43:14.579Z,-1.75
2023-03-03T07:45:31.495Z,-1.67
2023-03-03T07:47:48.947Z,-1.60
2023-03-03T07:50:05.932Z,-1.52
2023-03-03T07:52:23.253Z,-1.43
2023-03-03T07:54:40.703Z,-1.34
2023-03-03T07:56:57.588Z,-1.23
2023-03-03T07:59:14.615Z,-1.11
2023-03-03T08:01:31.688Z,-0.95
2023-03-03T08:03:48.943Z,-0.82
2023-03-03T08:06:06.065Z,-0.67
2023-03-03T08:08:23.158Z,-0.52
2023-03-03T08:10:42.397Z,-0.32
2023-03-03T08:12:59.442Z,-0.08
2023-03-03T08:15:16.369Z,0.14
2023-03-03T08:17:33.401Z,0.33
2023-03-03T08:19:50.375Z,0.58
2023-03-03T08:22:07.454Z,0.76
2023-03-03T08:24:24.530Z,0.93
2023-03-03T08:26:41.594Z,1.15
2023-03-03T08:28:58.989Z,1.38
2023-03-03T08:31:28.019Z,1.48
2023-03-03T08:33:49.027Z,1.69
2023-03-03T08:36:06.017Z,1.86
2023-03-03T08:38:23.351Z,1.95
2023-03-03T08:40:40.663Z,2.03
2023-03-03T08:42:57.736Z,2.16
2023-03-03T08:45:14.959Z,2.29
2023-03-03T08:47:31.904Z,2.40
2023-03-03T08:49:48.893Z,2.60
2023-03-03T08:52:05.997Z,2.74
2023-03-03T08:54:23.923Z,2.83
2023-03-03T08:56:41.028Z,2.99
2023-03-03T08:59:02.890Z,3.13
2023-03-03T09:01:20.211Z,3.16
2023-03-03T09:03:37.313Z,3.41
2023-03-03T09:05:54.270Z,3.39
2023-03-03T09:08:11.411Z,3.51
2023-03-03T09:10:28.696Z,3.63
2023-03-03T09:12:45.637Z,3.81
2023-03-03T09:15:02.734Z,3.79
2023-03-03T09:17:19.976Z,3.89
2023-03-03T09:19:37.537Z,4.02
2023-03-03T09:21:54.966Z,4.10
2023-03-03T09:24:11.949Z,4.19
2023-03-03T09:26:29.280Z,4.25
2023-03-03T09:28:46.322Z,4.31
2023-03-03T09:31:05.270Z,4.61
2023-03-03T09:33:23.525Z,4.66
2023-03-03T09:35:40.842Z,4.81
2023-03-03T09:37:57.851Z,4.82
2023-03-03T09:40:14.885Z,4.89
2023-03-03T09:42:31.941Z,4.95
2023-03-03T09:44:49.006Z,5.05
2023-03-03T09:47:06.027Z,5.17
2023-03-03T09:49:26.059Z,5.15
2023-03-03T09:51:43.706Z,5.13
2023-03-03T09:54:00.601Z,5.23
2023-03-03T09:56:17.881Z,5.29
2023-03-03T09:58:34.910Z,5.41
2023-03-03T10:00:51.850Z,5.40
2023-03-03T10:03:09.763Z,5.52
2023-03-03T10:05:27.696Z,5.51
2023-03-03T10:07:45.042Z,5.65
2023-03-03T10:10:02.143Z,5.74
2023-03-03T10:12:19.406Z,5.75
2023-03-03T10:14:36.390Z,5.70
2023-03-03T10:16:54.044Z,5.91
2023-03-03T10:19:11.502Z,5.87
2023-03-03T10:21:28.437Z,5.99
2023-03-03T10:23:45.468Z,5.83
2023-03-03T10:26:02.349Z,5.78
2023-03-03T10:28:19.643Z,5.95
2023-03-03T10:30:42.657Z,6.17
2023-03-03T10:33:01.472Z,6.19
2023-03-03T10:35:18.766Z,6.17
2023-03-03T10:37:35.729Z,6.19
2023-03-03T10:39:52.650Z,6.15
2023-03-03T10:42:09.546Z,6.37
2023-03-03T10:44:26.581Z,6.26
2023-03-03T10:46:43.659Z,6.30
2023-03-03T10:49:02.235Z,6.33
2023-03-03T10:51:19.251Z,6.57
2023-03-03T10:53:36.215Z,6.68
2023-03-03T10:55:53.142Z,6.64
2023-03-03T10:58:10.398Z,6.63
2023-03-03T11:00:27.323Z,6.67
2023-03-03T11:02:44.435Z,6.89
2023-03-03T11:05:01.936Z,6.99
2023-03-03T11:07:19.374Z,6.94
2023-03-03T11:09:36.667Z,6.89
2023-03-03T11:11:53.673Z,7.16
2023-03-03T11:14:10.921Z,7.13
2023-03-03T11:16:27.798Z,7.27
2023-03-03T11:18:44.801Z,7.41
2023-03-03T11:21:01.844Z,7.60
2023-03-03T11:23:18.917Z,7.67
2023-03-03T11:25:35.933Z,7.75
2023-03-03T11:27:53.237Z,7.87
2023-03-03T11:30:10.243Z,7.90
2023-03-03T11:32:27.335Z,8.04
2023-03-03T11:34:44.632Z,7.92
2023-03-03T11:37:01.645Z,8.12
2023-03-03T11:39:18.589Z,8.16
2023-03-03T11:41:35.626Z,8.26
2023-03-03T11:43:52.858Z,8.53
2023-03-03T11:46:09.855Z,8.49
2023-03-03T11:48:26.771Z,8.52
2023-03-03T11:50:43.788Z,8.56
2023-03-03T11:53:01.033Z,8.60
2023-03-03T11:55:18.039Z,8.52
2023-03-03T11:57:34.951Z,8.47
2023-03-03T11:59:51.891Z,8.48
2023-03-03T12:02:08.814Z,8.37
2023-03-03T12:04:26.649Z,8.50
2023-03-03T12:06:43.517Z,8.63
2023-03-03T12:09:00.477Z,8.89
2023-03-03T12:11:17.720Z,8.73
2023-03-03T12:13:34.725Z,8.88
2023-03-03T12:15:52.032Z,9.04
2023-03-03T12:18:08.991Z,9.18
2023-03-03T12:20:25.875Z,9.20
2023-03-03T12:22:43.115Z,9.00
2023-03-03T12:25:00.069Z,8.94
2023-03-03T12:27:17.023Z,8.95
2023-03-03T12:29:33.997Z,9.19
2023-03-03T12:31:51.949Z,9.05
2023-03-03T12:34:08.877Z,9.15
2023-03-03T12:36:26.133Z,9.23
2023-03-03T12:38:43.054Z,9.18
2023-03-03T12:41:00.088Z,9.17
2023-03-03T12:43:17.044Z,9.32
2023-03-03T12:45:33.973Z,9.46
2023-03-03T12:47:51.928Z,9.58
2023-03-03T12:50:09.958Z,9.47
2023-03-03T12:52:26.831Z,9.57
2023-03-03T12:54:44.079Z,9.71
2023-03-03T12:57:01.099Z,9.49
2023-03-03T12:59:18.404Z,9.50
2023-03-03T13:01:35.620Z,9.42
2023-03-03T13:03:56.140Z,9.45
2023-03-03T13:06:14.456Z,9.35
2023-03-03T13:08:32.501Z,9.37
2023-03-03T13:10:49.428Z,9.49
2023-03-03T13:13:06.350Z,9.52
2023-03-03T13:15:31.775Z,9.43
2023-03-03T13:17:49.592Z,9.45
2023-03-03T13:20:06.867Z,9.39
2023-03-03T13:22:23.955Z,9.34
2023-03-03T13:24:42.619Z,9.34
2023-03-03T13:27:00.801Z,9.54
2023-03-03T13:29:18.142Z,9.59
2023-03-03T13:31:35.073Z,9.42
2023-03-03T13:33:52.194Z,9.46
2023-03-03T13:36:09.213Z,9.70
2023-03-03T13:38:26.115Z,9.84
2023-03-03T13:40:43.420Z,9.81
2023-03-03T13:43:01.646Z,9.74
2023-03-03T13:45:18.913Z,9.79
2023-03-03T13:47:35.987Z,9.89
2023-03-03T13:49:52.908Z,9.96
2023-03-03T13:52:09.939Z,10.04
2023-03-03T13:54:26.964Z,10.06
2023-03-03T13:56:43.902Z,10.02
2023-03-03T13:59:00.937Z,10.21
2023-03-03T14:01:17.910Z,10.11
2023-03-03T14:03:35.009Z,10.25
2023-03-03T14:05:52.268Z,10.22
2023-03-03T14:08:09.339Z,10.00
2023-03-03T14:10:26.278Z,9.93
2023-03-03T14:12:43.261Z,9.93
2023-03-03T14:15:00.194Z,10.11
2023-03-03T14:17:17.116Z,10.18
2023-03-03T14:19:35.148Z,10.16
2023-03-03T14:21:52.174Z,10.35
2023-03-03T14:24:09.235Z,10.35
2023-03-03T14:26:26.511Z,10.30
2023-03-03T14:28:43.772Z,10.25
2023-03-03T14:31:03.119Z,10.06
2023-03-03T14:33:20.225Z,10.10
2023-03-03T14:35:37.167Z,10.14
2023-03-03T14:37:54.198Z,10.18
2023-03-03T14:40:11.110Z,10.05
2023-03-03T14:42:27.964Z,9.98
2023-03-03T14:44:45.252Z,10.03
2023-03-03T14:47:02.518Z,9.91
2023-03-03T14:49:19.811Z,9.98
2023-03-03T14:51:37.089Z,9.88
2023-03-03T14:53:54.190Z,9.70
2023-03-03T14:56:11.153Z,9.78
2023-03-03T14:58:28.390Z,9.82
2023-03-03T15:00:45.653Z,9.79
2023-03-03T15:03:02.581Z,9.73
2023-03-03T15:05:19.711Z,9.71
2023-03-03T15:07:36.824Z,9.63
2023-03-03T15:09:53.860Z,9.48
2023-03-03T15:12:11.286Z,9.44
2023-03-03T15:14:28.216Z,9.49
2023-03-03T15:16:45.285Z,9.37
2023-03-03T15:19:02.280Z,9.30
2023-03-03T15:21:20.158Z,9.13
2023-03-03T15:23:37.454Z,8.96
2023-03-03T15:25:57.693Z,8.84
2023-03-03T15:28:15.747Z,8.74
2023-03-03T15:30:32.688Z,8.82
2023-03-03T15:32:49.817Z,8.84
2023-03-03T15:35:06.740Z,8.88
2023-03-03T15:37:24.030Z,9.01
2023-03-03T15:39:41.325Z,9.07
2023-03-03T15:41:58.263Z,9.19
2023-03-03T15:44:15.191Z,9.33
2023-03-03T15:46:32.237Z,9.65
2023-03-03T15:48:49.593Z,10.00
2023-03-03T15:51:06.626Z,10.39
2023-03-03T15:53:23.912Z,10.69
2023-03-03T15:55:40.831Z,10.94
2023-03-03T15:57:57.879Z,11.15
2023-03-03T16:00:15.157Z,10.90
2023-03-03T16:02:32.452Z,11.13
2023-03-03T16:04:49.762Z,11.33
2023-03-03T16:07:06.834Z,10.47
2023-03-03T16:09:23.788Z,9.25
2023-03-03T16:11:41.065Z,8.73
2023-03-03T16:13:58.265Z,8.09
2023-03-03T16:16:15.264Z,7.68
2023-03-03T16:18:32.357Z,7.48
2023-03-03T16:20:49.290Z,7.21
2023-03-03T16:23:06.330Z,7.06
2023-03-03T16:25:23.586Z,6.83
2023-03-03T16:27:40.570Z,6.66
2023-03-03T16:29:57.775Z,6.50
2023-03-03T16:32:15.101Z,6.34
2023-03-03T16:34:32.146Z,6.22
2023-03-03T16:36:49.032Z,6.15
2023-03-03T16:39:05.973Z,6.07
2023-03-03T16:41:22.856Z,5.99
2023-03-03T16:43:39.832Z,5.95
2023-03-03T16:45:56.850Z,5.83
2023-03-03T16:48:13.798Z,5.80
2023-03-03T16:50:30.744Z,5.73
2023-03-03T16:52:47.810Z,5.62
2023-03-03T16:55:04.871Z,5.55
2023-03-03T16:57:21.945Z,5.44
2023-03-03T16:59:38.936Z,5.32
2023-03-03T17:01:55.997Z,5.24
2023-03-03T17:04:15.359Z,5.11
2023-03-03T17:06:32.381Z,5.11
2023-03-03T17:08:49.294Z,5.04
2023-03-03T17:11:06.338Z,4.97
2023-03-03T17:13:23.619Z,4.98
2023-03-03T17:15:40.624Z,4.90
2023-03-03T17:17:57.630Z,4.83
2023-03-03T17:20:14.565Z,4.69
2023-03-03T17:22:31.479Z,4.64
2023-03-03T17:24:48.503Z,4.53
2023-03-03T17:27:05.403Z,4.40
2023-03-03T17:29:22.532Z,4.34
2023-03-03T17:31:39.548Z,4.27
2023-03-03T17:33:57.569Z,4.16
2023-03-03T17:36:15.253Z,4.07
2023-03-03T17:38:33.247Z,4.01
2023-03-03T17:40:50.227Z,3.91
2023-03-03T17:43:07.549Z,3.78
2023-03-03T17:45:24.591Z,3.69
2023-03-03T17:47:41.907Z,3.62
2023-03-03T17:49:59.276Z,3.55
2023-03-03T17:52:16.623Z,3.45
2023-03-03T17:54:33.574Z,3.41
2023-03-03T17:56:50.514Z,3.32
2023-03-03T17:59:07.558Z,3.24
2023-03-03T18:01:24.480Z,3.18
2023-03-03T18:03:41.577Z,3.13
2023-03-03T18:05:59.993Z,3.06
2023-03-03T18:08:16.878Z,2.99
2023-03-03T18:10:33.875Z,2.91
2023-03-03T18:12:51.151Z,2.82
2023-03-03T18:15:08.084Z,2.78
2023-03-03T18:17:25.025Z,2.72
2023-03-03T18:19:42.067Z,2.66
2023-03-03T18:21:58.987Z,2.62
2023-03-03T18:24:16.020Z,2.56
2023-03-03T18:26:32.950Z,2.55
2023-03-03T18:28:49.829Z,2.52
2023-03-03T18:31:06.929Z,2.49
2023-03-03T18:33:24.058Z,2.45
2023-03-03T18:35:42.085Z,2.37
2023-03-03T18:37:59.163Z,2.35
2023-03-03T18:40:16.358Z,2.33
2023-03-03T18:42:35.138Z,2.28
2023-03-03T18:44:53.435Z,2.24
2023-03-03T18:47:10.295Z,2.25
2023-03-03T18:49:27.287Z,2.24
2023-03-03T18:51:44.574Z,2.25
2023-03-03T18:54:01.557Z,2.26
2023-03-03T18:56:18.792Z,2.22
2023-03-03T18:58:35.773Z,2.21
2023-03-03T19:00:53.091Z,2.24
2023-03-03T19:03:10.216Z,2.24
2023-03-03T19:05:27.124Z,2.16
2023-03-03T19:07:44.359Z,2.08
2023-03-03T19:10:01.804Z,2.02
2023-03-03T19:12:18.938Z,1.98
2023-03-03T19:14:36.008Z,1.94
2023-03-03T19:16:52.950Z,1.87
2023-03-03T19:19:10.073Z,1.85
2023-03-03T19:21:27.071Z,1.79
2023-03-03T19:23:43.999Z,1.77
2023-03-03T19:26:00.902Z,1.72
2023-03-03T19:28:17.973Z,1.69
2023-03-03T19:30:34.839Z,1.68
2023-03-03T19:32:51.700Z,1.65
2023-03-03T19:35:08.901Z,1.64
2023-03-03T19:37:26.170Z,1.59
2023-03-03T19:39:46.106Z,1.57
2023-03-03T19:42:03.308Z,1.55
2023-03-03T19:44:21.313Z,1.54
2023-03-03T19:46:38.462Z,1.51
2023-03-03T19:48:56.792Z,1.49
2023-03-03T19:51:13.758Z,1.49
2023-03-03T19:53:31.039Z,1.47
2023-03-03T19:55:48.119Z,1.47
2023-03-03T19:58:05.136Z,1.42
2023-03-03T20:00:22.127Z,1.41
2023-03-03T20:02:39.372Z,1.40
2023-03-03T20:04:56.379Z,1.39
2023-03-03T20:07:13.736Z,1.33
2023-03-03T20:09:30.768Z,1.30
2023-03-03T20:11:48.779Z,1.30
2023-03-03T20:14:05.831Z,1.29
2023-03-03T20:16:23.131Z,1.28
2023-03-03T20:18:40.215Z,1.24
2023-03-03T20:20:57.303Z,1.17
2023-03-03T20:23:14.297Z,1.14
2023-03-03T20:25:31.604Z,1.12
2023-03-03T20:27:48.801Z,1.14
2023-03-03T20:30:06.067Z,1.15
2023-03-03T20:32:23.390Z,1.10
2023-03-03T20:34:40.337Z,1.06
2023-03-03T20:36:58.283Z,1.06
2023-03-03T20:39:15.350Z,1.04
2023-03-03T20:41:32.360Z,1.00
2023-03-03T20:43:49.268Z,0.96
2023-03-03T20:46:06.319Z,0.97
2023-03-03T20:48:23.292Z,0.99
2023-03-03T20:50:40.262Z,0.95
2023-03-03T20:52:57.216Z,0.95
2023-03-03T20:55:14.535Z,0.90
2023-03-03T20:57:31.514Z,0.87
2023-03-03T20:59:48.492Z,0.83
2023-03-03T21:02:06.683Z,0.78
2023-03-03T21:04:24.608Z,0.75
2023-03-03T21:06:41.513Z,0.71
2023-03-03T21:08:58.868Z,0.66
2023-03-03T21:11:16.972Z,0.66
2023-03-03T21:13:34.046Z,0.64
2023-03-03T21:15:50.995Z,0.62
2023-03-03T21:18:07.964Z,0.61
2023-03-03T21:20:24.824Z,0.61
2023-03-03T21:22:42.181Z,0.60
2023-03-03T21:24:59.131Z,0.58
2023-03-03T21:27:16.141Z,0.59
2023-03-03T21:29:33.432Z,0.60
2023-03-03T21:31:50.471Z,0.63
2023-03-03T21:34:09.451Z,0.67
2023-03-03T21:36:26.464Z,0.71
2023-03-03T21:38:43.686Z,0.74
2023-03-03T21:41:00.973Z,0.80
2023-03-03T21:43:18.294Z,0.83
2023-03-03T21:45:35.238Z,0.85
2023-03-03T21:47:52.448Z,0.87
2023-03-03T21:50:10.798Z,0.87
2023-03-03T21:52:28.104Z,0.89
2023-03-03T21:54:45.048Z,0.89
2023-03-03T21:57:02.337Z,0.92
2023-03-03T21:59:19.264Z,0.92
2023-03-03T22:01:38.251Z,0.89
2023-03-03T22:03:55.551Z,0.92
2023-03-03T22:06:12.642Z,0.93
2023-03-03T22:08:30.010Z,0.95
2023-03-03T22:10:47.267Z,0.95
2023-03-03T22:13:04.541Z,0.96
2023-03-03T22:15:21.606Z,0.94
2023-03-03T22:17:38.546Z,0.96
2023-03-03T22:19:55.848Z,0.96
2023-03-03T22:22:12.849Z,0.96
2023-03-03T22:24:29.749Z,0.96
2023-03-03T22:26:46.685Z,0.96
2023-03-03T22:29:03.756Z,0.96
2023-03-03T22:31:21.769Z,0.97
2023-03-03T22:33:38.805Z,1.00
2023-03-03T22:35:56.144Z,0.97
2023-03-03T22:38:13.363Z,0.96
2023-03-03T22:40:30.711Z,0.91
2023-03-03T22:42:47.820Z,0.88
2023-03-03T22:45:04.766Z,0.87
2023-03-03T22:47:21.829Z,0.81
2023-03-03T22:49:38.943Z,0.80
2023-03-03T22:51:55.952Z,0.74
2023-03-03T22:54:13.038Z,0.71
2023-03-03T22:56:29.965Z,0.66
2023-03-03T22:58:46.987Z,0.62
2023-03-03T23:01:04.287Z,0.59
2023-03-03T23:03:21.331Z,0.56
2023-03-03T23:05:38.684Z,0.54
2023-03-03T23:07:55.723Z,0.47
2023-03-03T23:10:12.750Z,0.46
2023-03-03T23:12:29.874Z,0.46
2023-03-03T23:14:46.827Z,0.45
2023-03-03T23:17:04.218Z,0.42
2023-03-03T23:19:21.510Z,0.39
2023-03-03T23:21:38.484Z,0.33
2023-03-03T23:23:55.428Z,0.31
2023-03-03T23:26:12.787Z,0.28
2023-03-03T23:28:31.059Z,0.28
2023-03-03T23:30:48.269Z,0.26
2023-03-03T23:33:05.502Z,0.22
2023-03-03T23:35:22.545Z,0.23
2023-03-03T23:37:39.454Z,0.29
2023-03-03T23:39:56.748Z,0.32
2023-03-03T23:42:13.803Z,0.31
2023-03-03T23:44:30.936Z,0.29
2023-03-03T23:46:48.080Z,0.30
2023-03-03T23:49:05.051Z,0.24
2023-03-03T23:51:22.344Z,0.30
2023-03-03T23:53:40.278Z,0.29
2023-03-03T23:55:57.330Z,0.27
2023-03-03T23:58:14.254Z,0.27
